sensor_id;sensor_type;location;lat;lon;timestamp;P1;durP1;ratioP1;P2;durP2;ratioP2
40541;SDS011;49288;52.194;5.676;2022-11-15T00:03:39;148.02;;;34.28;;
40541;SDS011;49288;52.194;5.676;2022-11-15T00:09:00;192.95;;;40.90;;
40541;SDS011;49288;52.194;5.676;2022-11-15T00:14:22;197.93;;;43.47;;
40541;SDS011;49288;52.194;5.676;2022-11-15T00:19:43;222.15;;;43.50;;
40541;SDS011;49288;52.194;5.676;2022-11-15T00:25:05;163.32;;;37.65;;
40541;SDS011;49288;52.194;5.676;2022-11-15T00:30:27;191.10;;;39.72;;
40541;SDS011;49288;52.194;5.676;2022-11-15T00:35:50;170.82;;;39.20;;
40541;SDS011;49288;52.194;5.676;2022-11-15T00:41:11;134.45;;;32.35;;
40541;SDS011;49288;52.194;5.676;2022-11-15T00:46:35;172.35;;;37.50;;
40541;SDS011;49288;52.194;5.676;2022-11-15T00:51:56;66.05;;;18.00;;
40541;SDS011;49288;52.194;5.676;2022-11-15T00:57:19;171.52;;;37.97;;
40541;SDS011;49288;52.194;5.676;2022-11-15T01:02:41;123.28;;;31.00;;
40541;SDS011;49288;52.194;5.676;2022-11-15T01:08:02;73.78;;;22.90;;
40541;SDS011;49288;52.194;5.676;2022-11-15T01:13:24;180.45;;;37.75;;
40541;SDS011;49288;52.194;5.676;2022-11-15T01:18:45;192.07;;;40.97;;
40541;SDS011;49288;52.194;5.676;2022-11-15T01:24:07;266.85;;;47.38;;
40541;SDS011;49288;52.194;5.676;2022-11-15T01:29:32;246.32;;;45.88;;
40541;SDS011;49288;52.194;5.676;2022-11-15T01:34:54;265.73;;;49.53;;
40541;SDS011;49288;52.194;5.676;2022-11-15T01:40:15;298.92;;;51.42;;
40541;SDS011;49288;52.194;5.676;2022-11-15T01:45:37;241.07;;;45.05;;
40541;SDS011;49288;52.194;5.676;2022-11-15T01:50:59;311.80;;;54.88;;
40541;SDS011;49288;52.194;5.676;2022-11-15T01:56:23;319.23;;;54.78;;
40541;SDS011;49288;52.194;5.676;2022-11-15T02:01:46;345.90;;;57.15;;
40541;SDS011;49288;52.194;5.676;2022-11-15T02:07:08;349.40;;;58.08;;
40541;SDS011;49288;52.194;5.676;2022-11-15T02:12:30;333.15;;;57.47;;
40541;SDS011;49288;52.194;5.676;2022-11-15T02:29:10;391.35;;;62.08;;
40541;SDS011;49288;52.194;5.676;2022-11-15T02:34:35;342.58;;;59.80;;
40541;SDS011;49288;52.194;5.676;2022-11-15T02:40:10;412.10;;;69.85;;
40541;SDS011;49288;52.194;5.676;2022-11-15T02:45:35;389.45;;;66.63;;
40541;SDS011;49288;52.194;5.676;2022-11-15T02:50:58;386.80;;;66.97;;
40541;SDS011;49288;52.194;5.676;2022-11-15T02:56:21;393.30;;;65.82;;
40541;SDS011;49288;52.194;5.676;2022-11-15T03:01:47;351.88;;;61.03;;
40541;SDS011;49288;52.194;5.676;2022-11-15T03:07:15;409.13;;;69.22;;
40541;SDS011;49288;52.194;5.676;2022-11-15T03:12:45;429.65;;;73.85;;
40541;SDS011;49288;52.194;5.676;2022-11-15T03:18:12;409.65;;;71.78;;
40541;SDS011;49288;52.194;5.676;2022-11-15T03:23:39;432.90;;;72.28;;
40541;SDS011;49288;52.194;5.676;2022-11-15T03:29:12;442.65;;;73.60;;
40541;SDS011;49288;52.194;5.676;2022-11-15T03:40:17;416.55;;;72.97;;
40541;SDS011;49288;52.194;5.676;2022-11-15T03:45:42;401.08;;;69.32;;
40541;SDS011;49288;52.194;5.676;2022-11-15T03:51:04;308.73;;;49.90;;
40541;SDS011;49288;52.194;5.676;2022-11-15T03:56:28;333.77;;;56.07;;
40541;SDS011;49288;52.194;5.676;2022-11-15T04:01:50;316.05;;;55.22;;
40541;SDS011;49288;52.194;5.676;2022-11-15T04:07:11;359.90;;;64.18;;
40541;SDS011;49288;52.194;5.676;2022-11-15T04:12:35;277.25;;;48.30;;
40541;SDS011;49288;52.194;5.676;2022-11-15T04:17:57;397.92;;;68.18;;
40541;SDS011;49288;52.194;5.676;2022-11-15T04:23:20;383.77;;;65.53;;
40541;SDS011;49288;52.194;5.676;2022-11-15T04:29:01;316.23;;;47.97;;
40541;SDS011;49288;52.194;5.676;2022-11-15T04:34:41;133.70;;;29.88;;
40541;SDS011;49288;52.194;5.676;2022-11-15T04:40:04;221.40;;;41.08;;
40541;SDS011;49288;52.194;5.676;2022-11-15T04:45:26;339.85;;;57.55;;
40541;SDS011;49288;52.194;5.676;2022-11-15T04:50:49;297.93;;;51.73;;
40541;SDS011;49288;52.194;5.676;2022-11-15T04:56:30;343.55;;;55.85;;
40541;SDS011;49288;52.194;5.676;2022-11-15T05:01:52;339.23;;;60.22;;
40541;SDS011;49288;52.194;5.676;2022-11-15T05:07:13;377.63;;;60.35;;
40541;SDS011;49288;52.194;5.676;2022-11-15T05:12:35;296.80;;;51.00;;
40541;SDS011;49288;52.194;5.676;2022-11-15T05:17:58;370.50;;;62.17;;
40541;SDS011;49288;52.194;5.676;2022-11-15T05:23:20;270.77;;;48.85;;
40541;SDS011;49288;52.194;5.676;2022-11-15T05:28:42;321.65;;;55.45;;
40541;SDS011;49288;52.194;5.676;2022-11-15T05:34:05;372.98;;;62.20;;
40541;SDS011;49288;52.194;5.676;2022-11-15T05:39:26;368.13;;;63.28;;
40541;SDS011;49288;52.194;5.676;2022-11-15T05:44:51;335.58;;;58.65;;
40541;SDS011;49288;52.194;5.676;2022-11-15T05:50:13;351.48;;;59.58;;
40541;SDS011;49288;52.194;5.676;2022-11-15T05:55:37;377.23;;;62.90;;
40541;SDS011;49288;52.194;5.676;2022-11-15T06:01:00;343.15;;;57.08;;
40541;SDS011;49288;52.194;5.676;2022-11-15T06:06:22;355.52;;;61.15;;
40541;SDS011;49288;52.194;5.676;2022-11-15T06:11:45;265.48;;;45.63;;
40541;SDS011;49288;52.194;5.676;2022-11-15T06:17:09;353.50;;;58.35;;
40541;SDS011;49288;52.194;5.676;2022-11-15T06:22:31;287.40;;;48.67;;
40541;SDS011;49288;52.194;5.676;2022-11-15T06:27:52;278.98;;;47.90;;
40541;SDS011;49288;52.194;5.676;2022-11-15T06:33:15;307.30;;;53.13;;
40541;SDS011;49288;52.194;5.676;2022-11-15T06:38:36;318.90;;;54.83;;
40541;SDS011;49288;52.194;5.676;2022-11-15T06:43:58;365.88;;;59.08;;
40541;SDS011;49288;52.194;5.676;2022-11-15T06:49:19;372.50;;;61.15;;
40541;SDS011;49288;52.194;5.676;2022-11-15T06:54:40;370.52;;;58.85;;
40541;SDS011;49288;52.194;5.676;2022-11-15T07:00:06;386.73;;;61.80;;
40541;SDS011;49288;52.194;5.676;2022-11-15T07:05:29;328.17;;;52.67;;
40541;SDS011;49288;52.194;5.676;2022-11-15T07:10:50;305.85;;;49.92;;
40541;SDS011;49288;52.194;5.676;2022-11-15T07:16:12;358.15;;;60.88;;
40541;SDS011;49288;52.194;5.676;2022-11-15T07:21:33;271.38;;;46.38;;
40541;SDS011;49288;52.194;5.676;2022-11-15T07:26:54;295.92;;;47.10;;
40541;SDS011;49288;52.194;5.676;2022-11-15T07:32:16;297.25;;;48.60;;
40541;SDS011;49288;52.194;5.676;2022-11-15T07:37:37;352.25;;;58.15;;
40541;SDS011;49288;52.194;5.676;2022-11-15T07:43:03;322.13;;;51.92;;
40541;SDS011;49288;52.194;5.676;2022-11-15T07:48:25;305.52;;;51.63;;
40541;SDS011;49288;52.194;5.676;2022-11-15T07:54:03;321.02;;;53.20;;
40541;SDS011;49288;52.194;5.676;2022-11-15T07:59:24;160.05;;;31.67;;
40541;SDS011;49288;52.194;5.676;2022-11-15T08:04:45;243.45;;;41.53;;
40541;SDS011;49288;52.194;5.676;2022-11-15T08:10:07;294.30;;;51.33;;
40541;SDS011;49288;52.194;5.676;2022-11-15T08:15:29;342.58;;;60.25;;
40541;SDS011;49288;52.194;5.676;2022-11-15T08:20:51;315.42;;;53.90;;
40541;SDS011;49288;52.194;5.676;2022-11-15T08:26:31;248.35;;;44.05;;
40541;SDS011;49288;52.194;5.676;2022-11-15T08:31:54;260.45;;;47.45;;
40541;SDS011;49288;52.194;5.676;2022-11-15T08:37:16;292.20;;;50.20;;
40541;SDS011;49288;52.194;5.676;2022-11-15T08:42:37;226.00;;;42.65;;
40541;SDS011;49288;52.194;5.676;2022-11-15T08:48:00;278.13;;;50.47;;
40541;SDS011;49288;52.194;5.676;2022-11-15T08:53:23;309.05;;;54.63;;
40541;SDS011;49288;52.194;5.676;2022-11-15T08:58:47;311.40;;;57.72;;
40541;SDS011;49288;52.194;5.676;2022-11-15T09:04:09;286.08;;;52.10;;
40541;SDS011;49288;52.194;5.676;2022-11-15T09:09:30;299.27;;;53.38;;
40541;SDS011;49288;52.194;5.676;2022-11-15T09:14:52;265.15;;;49.65;;
40541;SDS011;49288;52.194;5.676;2022-11-15T09:20:14;270.50;;;51.47;;
40541;SDS011;49288;52.194;5.676;2022-11-15T09:25:35;244.82;;;47.28;;
40541;SDS011;49288;52.194;5.676;2022-11-15T09:30:57;179.43;;;36.33;;
40541;SDS011;49288;52.194;5.676;2022-11-15T09:36:19;177.50;;;35.65;;
40541;SDS011;49288;52.194;5.676;2022-11-15T09:41:58;206.80;;;42.03;;
40541;SDS011;49288;52.194;5.676;2022-11-15T09:52:56;62.13;;;21.98;;
40541;SDS011;49288;52.194;5.676;2022-11-15T09:58:01;38.97;;;15.70;;
40541;SDS011;49288;52.194;5.676;2022-11-15T10:03:09;83.30;;;26.15;;
40541;SDS011;49288;52.194;5.676;2022-11-15T10:13:19;37.30;;;17.02;;
40541;SDS011;49288;52.194;5.676;2022-11-15T10:23:31;33.83;;;13.82;;
40541;SDS011;49288;52.194;5.676;2022-11-15T10:28:34;32.13;;;14.45;;
40541;SDS011;49288;52.194;5.676;2022-11-15T10:33:38;25.50;;;14.10;;
40541;SDS011;49288;52.194;5.676;2022-11-15T10:49:14;24.05;;;10.85;;
40541;SDS011;49288;52.194;5.676;2022-11-15T10:54:25;13.40;;;7.75;;
40541;SDS011;49288;52.194;5.676;2022-11-15T10:59:31;14.13;;;7.60;;
40541;SDS011;49288;52.194;5.676;2022-11-15T11:04:50;15.77;;;7.30;;
40541;SDS011;49288;52.194;5.676;2022-11-15T11:10:00;21.63;;;9.43;;
40541;SDS011;49288;52.194;5.676;2022-11-15T11:15:09;17.30;;;7.82;;
40541;SDS011;49288;52.194;5.676;2022-11-15T11:20:18;14.88;;;8.23;;
40541;SDS011;49288;52.194;5.676;2022-11-15T11:35:48;12.20;;;5.10;;
40541;SDS011;49288;52.194;5.676;2022-11-15T11:51:34;9.65;;;5.30;;
40541;SDS011;49288;52.194;5.676;2022-11-15T11:56:40;14.07;;;5.28;;
40541;SDS011;49288;52.194;5.676;2022-11-15T12:01:45;10.68;;;4.53;;
40541;SDS011;49288;52.194;5.676;2022-11-15T12:07:25;10.25;;;4.10;;
40541;SDS011;49288;52.194;5.676;2022-11-15T12:17:40;10.38;;;4.50;;
40541;SDS011;49288;52.194;5.676;2022-11-15T12:22:47;8.98;;;4.15;;
40541;SDS011;49288;52.194;5.676;2022-11-15T12:28:00;11.05;;;3.95;;
40541;SDS011;49288;52.194;5.676;2022-11-15T12:33:26;10.52;;;3.88;;
40541;SDS011;49288;52.194;5.676;2022-11-15T12:43:52;9.40;;;3.72;;
40541;SDS011;49288;52.194;5.676;2022-11-15T12:49:08;7.13;;;3.38;;
40541;SDS011;49288;52.194;5.676;2022-11-15T12:59:48;11.80;;;3.38;;
40541;SDS011;49288;52.194;5.676;2022-11-15T13:04:52;6.93;;;3.03;;
40541;SDS011;49288;52.194;5.676;2022-11-15T13:15:31;9.43;;;3.10;;
40541;SDS011;49288;52.194;5.676;2022-11-15T13:20:44;8.70;;;2.90;;
40541;SDS011;49288;52.194;5.676;2022-11-15T13:30:59;10.85;;;3.22;;
40541;SDS011;49288;52.194;5.676;2022-11-15T13:36:06;11.73;;;2.80;;
40541;SDS011;49288;52.194;5.676;2022-11-15T13:41:11;11.60;;;2.85;;
40541;SDS011;49288;52.194;5.676;2022-11-15T13:56:26;9.45;;;3.00;;
40541;SDS011;49288;52.194;5.676;2022-11-15T14:01:30;13.60;;;3.63;;
40541;SDS011;49288;52.194;5.676;2022-11-15T14:06:44;9.82;;;2.90;;
40541;SDS011;49288;52.194;5.676;2022-11-15T14:11:53;16.92;;;2.70;;
40541;SDS011;49288;52.194;5.676;2022-11-15T14:16:59;10.80;;;2.50;;
40541;SDS011;49288;52.194;5.676;2022-11-15T14:27:22;6.95;;;2.45;;
40541;SDS011;49288;52.194;5.676;2022-11-15T14:32:27;11.75;;;2.40;;
40541;SDS011;49288;52.194;5.676;2022-11-15T14:37:33;11.27;;;2.80;;
40541;SDS011;49288;52.194;5.676;2022-11-15T14:42:37;12.40;;;2.60;;
40541;SDS011;49288;52.194;5.676;2022-11-15T14:47:42;8.55;;;3.55;;
40541;SDS011;49288;52.194;5.676;2022-11-15T14:53:04;19.45;;;5.80;;
40541;SDS011;49288;52.194;5.676;2022-11-15T14:58:08;10.13;;;3.85;;
40541;SDS011;49288;52.194;5.676;2022-11-15T15:03:11;7.25;;;2.90;;
40541;SDS011;49288;52.194;5.676;2022-11-15T15:08:14;6.93;;;2.83;;
40541;SDS011;49288;52.194;5.676;2022-11-15T15:13:20;7.75;;;2.60;;
40541;SDS011;49288;52.194;5.676;2022-11-15T15:18:25;7.93;;;2.58;;
40541;SDS011;49288;52.194;5.676;2022-11-15T15:23:28;7.40;;;2.95;;
40541;SDS011;49288;52.194;5.676;2022-11-15T15:28:32;7.03;;;2.67;;
40541;SDS011;49288;52.194;5.676;2022-11-15T15:33:38;7.18;;;2.22;;
40541;SDS011;49288;52.194;5.676;2022-11-15T15:38:42;4.80;;;2.50;;
40541;SDS011;49288;52.194;5.676;2022-11-15T15:43:46;7.67;;;2.40;;
40541;SDS011;49288;52.194;5.676;2022-11-15T15:48:49;8.00;;;2.53;;
40541;SDS011;49288;52.194;5.676;2022-11-15T15:53:54;12.63;;;2.40;;
40541;SDS011;49288;52.194;5.676;2022-11-15T15:58:58;12.68;;;2.67;;
40541;SDS011;49288;52.194;5.676;2022-11-15T16:04:01;9.23;;;2.75;;
40541;SDS011;49288;52.194;5.676;2022-11-15T16:09:06;6.95;;;2.70;;
40541;SDS011;49288;52.194;5.676;2022-11-15T16:14:17;10.77;;;2.63;;
40541;SDS011;49288;52.194;5.676;2022-11-15T16:19:20;12.07;;;3.03;;
40541;SDS011;49288;52.194;5.676;2022-11-15T16:24:23;9.80;;;2.78;;
40541;SDS011;49288;52.194;5.676;2022-11-15T16:29:25;18.13;;;3.00;;
40541;SDS011;49288;52.194;5.676;2022-11-15T16:34:29;10.10;;;2.90;;
40541;SDS011;49288;52.194;5.676;2022-11-15T16:39:36;6.63;;;2.80;;
40541;SDS011;49288;52.194;5.676;2022-11-15T16:44:39;11.48;;;3.35;;
40541;SDS011;49288;52.194;5.676;2022-11-15T16:49:43;8.35;;;2.65;;
40541;SDS011;49288;52.194;5.676;2022-11-15T16:54:46;7.60;;;3.03;;
40541;SDS011;49288;52.194;5.676;2022-11-15T16:59:50;10.75;;;2.78;;
40541;SDS011;49288;52.194;5.676;2022-11-15T17:04:54;11.80;;;2.88;;
40541;SDS011;49288;52.194;5.676;2022-11-15T17:09:59;14.45;;;3.50;;
40541;SDS011;49288;52.194;5.676;2022-11-15T17:15:02;16.00;;;4.00;;
40541;SDS011;49288;52.194;5.676;2022-11-15T17:20:08;10.33;;;3.57;;
40541;SDS011;49288;52.194;5.676;2022-11-15T17:25:16;20.63;;;3.50;;
40541;SDS011;49288;52.194;5.676;2022-11-15T17:30:20;12.60;;;4.60;;
40541;SDS011;49288;52.194;5.676;2022-11-15T17:35:23;13.18;;;3.75;;
40541;SDS011;49288;52.194;5.676;2022-11-15T17:40:26;10.50;;;3.20;;
40541;SDS011;49288;52.194;5.676;2022-11-15T17:45:31;10.45;;;4.30;;
40541;SDS011;49288;52.194;5.676;2022-11-15T17:50:34;10.00;;;4.40;;
40541;SDS011;49288;52.194;5.676;2022-11-15T17:55:38;9.35;;;4.88;;
40541;SDS011;49288;52.194;5.676;2022-11-15T18:00:41;10.47;;;4.80;;
40541;SDS011;49288;52.194;5.676;2022-11-15T18:05:46;12.52;;;4.55;;
40541;SDS011;49288;52.194;5.676;2022-11-15T18:10:49;15.05;;;6.25;;
40541;SDS011;49288;52.194;5.676;2022-11-15T18:15:55;17.50;;;5.70;;
40541;SDS011;49288;52.194;5.676;2022-11-15T18:21:03;12.55;;;5.90;;
40541;SDS011;49288;52.194;5.676;2022-11-15T18:26:07;13.13;;;5.90;;
40541;SDS011;49288;52.194;5.676;2022-11-15T18:31:16;14.18;;;5.65;;
40541;SDS011;49288;52.194;5.676;2022-11-15T18:36:38;14.07;;;6.57;;
40541;SDS011;49288;52.194;5.676;2022-11-15T18:41:42;15.15;;;7.20;;
40541;SDS011;49288;52.194;5.676;2022-11-15T18:46:46;15.73;;;7.10;;
40541;SDS011;49288;52.194;5.676;2022-11-15T18:51:49;14.02;;;7.07;;
40541;SDS011;49288;52.194;5.676;2022-11-15T18:56:53;13.93;;;6.68;;
40541;SDS011;49288;52.194;5.676;2022-11-15T19:07:18;13.52;;;6.47;;
40541;SDS011;49288;52.194;5.676;2022-11-15T19:12:22;16.53;;;6.70;;
40541;SDS011;49288;52.194;5.676;2022-11-15T19:17:24;16.27;;;7.55;;
40541;SDS011;49288;52.194;5.676;2022-11-15T19:22:28;18.83;;;7.97;;
40541;SDS011;49288;52.194;5.676;2022-11-15T19:27:31;18.38;;;8.85;;
40541;SDS011;49288;52.194;5.676;2022-11-15T19:32:39;16.92;;;8.38;;
40541;SDS011;49288;52.194;5.676;2022-11-15T19:37:42;13.52;;;8.35;;
40541;SDS011;49288;52.194;5.676;2022-11-15T19:42:44;17.77;;;8.15;;
40541;SDS011;49288;52.194;5.676;2022-11-15T19:47:50;25.08;;;9.30;;
40541;SDS011;49288;52.194;5.676;2022-11-15T19:52:57;19.75;;;9.02;;
40541;SDS011;49288;52.194;5.676;2022-11-15T19:58:00;21.48;;;9.70;;
40541;SDS011;49288;52.194;5.676;2022-11-15T20:03:03;21.90;;;9.70;;
40541;SDS011;49288;52.194;5.676;2022-11-15T20:08:06;19.63;;;9.20;;
40541;SDS011;49288;52.194;5.676;2022-11-15T20:13:09;22.98;;;11.50;;
40541;SDS011;49288;52.194;5.676;2022-11-15T20:18:12;17.80;;;10.18;;
40541;SDS011;49288;52.194;5.676;2022-11-15T20:23:15;21.48;;;10.20;;
40541;SDS011;49288;52.194;5.676;2022-11-15T20:28:19;19.60;;;9.98;;
40541;SDS011;49288;52.194;5.676;2022-11-15T20:33:23;20.10;;;11.18;;
40541;SDS011;49288;52.194;5.676;2022-11-15T20:38:26;23.05;;;12.27;;
40541;SDS011;49288;52.194;5.676;2022-11-15T20:43:29;26.48;;;11.90;;
40541;SDS011;49288;52.194;5.676;2022-11-15T20:48:32;27.80;;;14.23;;
40541;SDS011;49288;52.194;5.676;2022-11-15T20:53:36;29.30;;;13.32;;
40541;SDS011;49288;52.194;5.676;2022-11-15T20:58:39;28.08;;;13.48;;
40541;SDS011;49288;52.194;5.676;2022-11-15T21:03:47;31.13;;;14.30;;
40541;SDS011;49288;52.194;5.676;2022-11-15T21:08:51;28.33;;;15.20;;
40541;SDS011;49288;52.194;5.676;2022-11-15T21:14:12;33.22;;;15.43;;
40541;SDS011;49288;52.194;5.676;2022-11-15T21:19:15;39.08;;;18.48;;
40541;SDS011;49288;52.194;5.676;2022-11-15T21:24:20;30.33;;;16.48;;
40541;SDS011;49288;52.194;5.676;2022-11-15T21:29:25;34.97;;;15.77;;
40541;SDS011;49288;52.194;5.676;2022-11-15T21:34:30;33.78;;;16.38;;
40541;SDS011;49288;52.194;5.676;2022-11-15T21:39:33;34.55;;;14.80;;
40541;SDS011;49288;52.194;5.676;2022-11-15T21:44:37;36.75;;;18.13;;
40541;SDS011;49288;52.194;5.676;2022-11-15T21:54:44;32.55;;;16.83;;
40541;SDS011;49288;52.194;5.676;2022-11-15T21:59:46;36.78;;;19.33;;
40541;SDS011;49288;52.194;5.676;2022-11-15T22:05:08;42.05;;;20.63;;
40541;SDS011;49288;52.194;5.676;2022-11-15T22:10:12;48.10;;;20.80;;
40541;SDS011;49288;52.194;5.676;2022-11-15T22:15:17;45.22;;;22.15;;
40541;SDS011;49288;52.194;5.676;2022-11-15T22:20:26;44.92;;;20.70;;
40541;SDS011;49288;52.194;5.676;2022-11-15T22:25:45;48.17;;;21.65;;
40541;SDS011;49288;52.194;5.676;2022-11-15T22:30:50;49.45;;;20.10;;
40541;SDS011;49288;52.194;5.676;2022-11-15T22:35:53;36.63;;;19.33;;
40541;SDS011;49288;52.194;5.676;2022-11-15T22:40:57;49.80;;;22.40;;
40541;SDS011;49288;52.194;5.676;2022-11-15T22:46:02;46.25;;;21.73;;
40541;SDS011;49288;52.194;5.676;2022-11-15T22:51:08;38.05;;;20.23;;
40541;SDS011;49288;52.194;5.676;2022-11-15T22:56:11;60.67;;;25.23;;
40541;SDS011;49288;52.194;5.676;2022-11-15T23:01:21;46.17;;;22.48;;
40541;SDS011;49288;52.194;5.676;2022-11-15T23:06:24;51.07;;;21.63;;
40541;SDS011;49288;52.194;5.676;2022-11-15T23:11:29;53.35;;;23.48;;
40541;SDS011;49288;52.194;5.676;2022-11-15T23:21:55;55.92;;;24.70;;
40541;SDS011;49288;52.194;5.676;2022-11-15T23:32:24;53.25;;;23.17;;
40541;SDS011;49288;52.194;5.676;2022-11-15T23:37:46;61.50;;;25.77;;
40541;SDS011;49288;52.194;5.676;2022-11-15T23:42:49;59.17;;;26.45;;
40541;SDS011;49288;52.194;5.676;2022-11-15T23:47:52;53.10;;;23.02;;
40541;SDS011;49288;52.194;5.676;2022-11-15T23:53:02;65.32;;;26.20;;
40541;SDS011;49288;52.194;5.676;2022-11-15T23:58:06;69.63;;;29.48;;
